Time;durP1;ratioP1;P1;durP2;ratioP2;P2;SDS_P1;SDS_P2;PMS_P1;PMS_P2;Temp;Humidity;BMP_temperature;BMP_pressure;BME280_temperature;BME280_humidity;BME280_pressure;Samples;Min_cycle;Max_cycle;Signal;HPM_P1;HPM_P2
2023/12/09 00:01:54;;;;;;;87.43;30.05;;;;;;;;;;5051937;28;20112;-66
2023/12/09 00:04:19;;;;;;;77.07;27.45;;;;;;;;;;5052361;28;20029;-65
2023/12/09 00:06:49;;;;;;;106.85;34.40;;;;;;;;;;5051215;28;20109;-65
2023/12/09 00:09:15;;;;;;;100.53;32.97;;;;;;;;;;5051267;28;20093;-66
2023/12/09 00:11:41;;;;;;;82.88;29.83;;;;;;;;;;5051413;28;20022;-65
2023/12/09 00:14:07;;;;;;;104.70;33.10;;;;;;;;;;5051465;28;20017;-65
2023/12/09 00:16:32;;;;;;;85.05;29.60;;;;;;;;;;5051406;28;20374;-66
2023/12/09 00:18:58;;;;;;;97.75;31.90;;;;;;;;;;5051215;28;20025;-66
2023/12/09 00:21:24;;;;;;;93.65;32.13;;;;;;;;;;5051085;28;20558;-66
2023/12/09 00:23:49;;;;;;;106.47;32.80;;;;;;;;;;5050977;28;20347;-68
2023/12/09 00:26:15;;;;;;;84.00;27.52;;;;;;;;;;5052480;28;20043;-68
2023/12/09 00:28:40;;;;;;;81.05;26.17;;;;;;;;;;5054945;28;20055;-66
2023/12/09 00:31:06;;;;;;;81.63;29.45;;;;;;;;;;5055729;28;20056;-67
2023/12/09 00:33:31;;;;;;;69.70;23.08;;;;;;;;;;5054530;28;20457;-68
2023/12/09 00:35:57;;;;;;;90.70;29.70;;;;;;;;;;5055109;28;20478;-67
2023/12/09 00:38:22;;;;;;;52.15;19.20;;;;;;;;;;5054543;28;20028;-67
2023/12/09 00:40:48;;;;;;;94.45;29.15;;;;;;;;;;5050509;28;20025;-66
2023/12/09 00:43:13;;;;;;;104.18;33.35;;;;;;;;;;5035411;28;20079;-67
2023/12/09 00:45:38;;;;;;;52.25;21.45;;;;;;;;;;5044025;28;20420;-66
2023/12/09 00:48:04;;;;;;;87.85;27.33;;;;;;;;;;5054770;28;20032;-65
2023/12/09 00:50:29;;;;;;;67.15;27.52;;;;;;;;;;5054919;28;20025;-68
2023/12/09 00:52:55;;;;;;;82.75;29.73;;;;;;;;;;5054379;28;20047;-65
2023/12/09 00:55:20;;;;;;;76.38;26.23;;;;;;;;;;5055214;28;20028;-66
2023/12/09 00:57:46;;;;;;;104.18;35.00;;;;;;;;;;5055086;28;20489;-66
2023/12/09 01:00:12;;;;;;;49.58;21.05;;;;;;;;;;5053947;28;20239;-65
2023/12/09 01:02:39;;;;;;;97.07;31.35;;;;;;;;;;5055042;28;20032;-65
2023/12/09 01:05:05;;;;;;;101.82;34.50;;;;;;;;;;5055076;28;20029;-66
2023/12/09 01:07:30;;;;;;;86.93;28.90;;;;;;;;;;5054827;28;20044;-65
2023/12/09 01:09:56;;;;;;;98.40;32.22;;;;;;;;;;5054821;28;20036;-66
2023/12/09 01:12:21;;;;;;;97.95;32.85;;;;;;;;;;5055113;28;20023;-65
2023/12/09 01:14:47;;;;;;;65.40;23.52;;;;;;;;;;5054915;28;20429;-65
2023/12/09 01:17:12;;;;;;;72.22;25.20;;;;;;;;;;5054674;28;20060;-65
2023/12/09 01:19:37;;;;;;;69.35;24.05;;;;;;;;;;5053572;28;20020;-65
2023/12/09 01:22:03;;;;;;;96.10;30.60;;;;;;;;;;5053891;28;20511;-65
2023/12/09 01:24:28;;;;;;;59.60;28.95;;;;;;;;;;5054071;28;20522;-66
2023/12/09 01:26:54;;;;;;;105.90;31.63;;;;;;;;;;5054259;28;20021;-65
2023/12/09 01:29:19;;;;;;;100.47;33.55;;;;;;;;;;5054464;28;20021;-65
2023/12/09 01:31:45;;;;;;;100.03;34.13;;;;;;;;;;5054508;28;20032;-65
2023/12/09 01:34:11;;;;;;;85.55;28.83;;;;;;;;;;5054486;28;20025;-66
2023/12/09 01:36:36;;;;;;;104.32;32.55;;;;;;;;;;5053599;28;20033;-66
2023/12/09 01:39:02;;;;;;;75.68;23.88;;;;;;;;;;5054262;28;20044;-66
2023/12/09 01:41:28;;;;;;;82.68;27.48;;;;;;;;;;5043598;28;20390;-65
2023/12/09 01:43:54;;;;;;;90.15;31.48;;;;;;;;;;5034261;28;20097;-65
2023/12/09 01:46:20;;;;;;;69.45;24.45;;;;;;;;;;5048308;28;20445;-65
2023/12/09 01:48:47;;;;;;;64.22;24.63;;;;;;;;;;5053889;28;20096;-65
2023/12/09 01:51:15;;;;;;;88.80;29.85;;;;;;;;;;5054016;28;20024;-65
2023/12/09 01:53:42;;;;;;;72.65;25.15;;;;;;;;;;5054122;28;20091;-65
2023/12/09 01:56:10;;;;;;;98.43;32.63;;;;;;;;;;5053875;28;20098;-65
2023/12/09 01:58:37;;;;;;;69.95;22.83;;;;;;;;;;5053917;28;20021;-65
2023/12/09 02:01:03;;;;;;;69.97;22.38;;;;;;;;;;5053603;28;20382;-65
2023/12/09 02:03:31;;;;;;;59.13;26.85;;;;;;;;;;5053760;28;20052;-65
2023/12/09 02:05:57;;;;;;;34.30;20.13;;;;;;;;;;5050530;28;20048;-65
2023/12/09 02:08:22;;;;;;;105.10;31.38;;;;;;;;;;5053408;28;20017;-65
2023/12/09 02:10:56;;;;;;;80.57;26.25;;;;;;;;;;5053399;28;20024;-65
2023/12/09 02:13:29;;;;;;;51.40;20.73;;;;;;;;;;5051699;28;20056;-65
2023/12/09 02:16:09;;;;;;;42.10;18.88;;;;;;;;;;5053731;28;20112;-65
2023/12/09 02:18:35;;;;;;;95.93;29.93;;;;;;;;;;5053616;28;20028;-65
2023/12/09 02:21:01;;;;;;;103.28;30.38;;;;;;;;;;5053473;28;20032;-65
2023/12/09 02:23:26;;;;;;;104.82;27.67;;;;;;;;;;5053728;28;20032;-65
2023/12/09 02:25:56;;;;;;;29.38;15.90;;;;;;;;;;5053624;28;20047;-65
2023/12/09 02:28:27;;;;;;;84.38;26.55;;;;;;;;;;5053635;28;20486;-65
2023/12/09 02:31:09;;;;;;;78.43;26.27;;;;;;;;;;5053556;28;20041;-66
2023/12/09 02:33:35;;;;;;;96.65;30.23;;;;;;;;;;5053400;28;20112;-65
2023/12/09 02:36:03;;;;;;;35.17;16.40;;;;;;;;;;5052913;28;20051;-65
2023/12/09 02:38:30;;;;;;;67.47;26.65;;;;;;;;;;5053122;28;20029;-65
2023/12/09 02:40:57;;;;;;;58.85;21.65;;;;;;;;;;5047035;28;20021;-65
2023/12/09 02:43:22;;;;;;;64.43;22.38;;;;;;;;;;5033269;28;20052;-66
2023/12/09 02:45:48;;;;;;;106.03;29.90;;;;;;;;;;5042874;28;20087;-66
2023/12/09 02:48:13;;;;;;;81.43;27.88;;;;;;;;;;5052074;28;20037;-65
2023/12/09 02:50:39;;;;;;;112.38;30.48;;;;;;;;;;5052772;28;20451;-65
2023/12/09 02:53:04;;;;;;;60.45;21.40;;;;;;;;;;5052976;28;20045;-65
2023/12/09 02:55:30;;;;;;;73.03;23.75;;;;;;;;;;5052976;28;20020;-65
2023/12/09 02:57:55;;;;;;;52.72;18.48;;;;;;;;;;5052813;28;20075;-65
2023/12/09 03:00:20;;;;;;;92.65;28.48;;;;;;;;;;5052943;28;20059;-65
2023/12/09 03:02:46;;;;;;;105.05;31.42;;;;;;;;;;5052959;28;20021;-65
2023/12/09 03:05:11;;;;;;;108.88;30.02;;;;;;;;;;5052766;28;20025;-65
2023/12/09 03:07:37;;;;;;;103.00;30.02;;;;;;;;;;5052866;28;20044;-65
2023/12/09 03:10:02;;;;;;;96.18;30.92;;;;;;;;;;5051292;28;20057;-66
2023/12/09 03:12:28;;;;;;;107.97;31.15;;;;;;;;;;5052865;28;20029;-65
2023/12/09 03:14:53;;;;;;;87.50;26.00;;;;;;;;;;5052609;28;20175;-65
2023/12/09 03:17:19;;;;;;;102.43;28.58;;;;;;;;;;5051312;28;20491;-66
2023/12/09 03:19:44;;;;;;;105.25;30.73;;;;;;;;;;5051285;28;20522;-65
2023/12/09 03:22:10;;;;;;;93.75;25.98;;;;;;;;;;5052436;28;20474;-65
2023/12/09 03:24:35;;;;;;;92.18;27.02;;;;;;;;;;5052604;28;20112;-65
2023/12/09 03:27:01;;;;;;;97.88;28.60;;;;;;;;;;5052374;28;20025;-65
2023/12/09 03:29:26;;;;;;;100.07;29.40;;;;;;;;;;5051144;28;20035;-65
2023/12/09 03:31:51;;;;;;;95.85;29.25;;;;;;;;;;5052452;28;20025;-65
2023/12/09 03:34:17;;;;;;;86.93;24.73;;;;;;;;;;5052259;28;20056;-65
2023/12/09 03:36:42;;;;;;;100.40;28.95;;;;;;;;;;5052148;28;20523;-66
2023/12/09 03:39:09;;;;;;;96.97;28.20;;;;;;;;;;5052260;28;20535;-66
2023/12/09 03:41:34;;;;;;;64.68;20.23;;;;;;;;;;5041078;28;20060;-65
2023/12/09 03:44:01;;;;;;;86.45;25.77;;;;;;;;;;5032182;28;20463;-66
2023/12/09 03:46:26;;;;;;;89.88;26.45;;;;;;;;;;5046874;28;20021;-66
2023/12/09 03:48:51;;;;;;;87.88;27.77;;;;;;;;;;5052263;28;20162;-66
2023/12/09 03:51:17;;;;;;;89.72;28.67;;;;;;;;;;5052087;28;20432;-66
2023/12/09 03:53:43;;;;;;;69.45;24.83;;;;;;;;;;5052102;28;20332;-66
2023/12/09 03:56:11;;;;;;;75.10;24.30;;;;;;;;;;5052285;28;20519;-66
2023/12/09 03:58:37;;;;;;;91.68;28.65;;;;;;;;;;5051955;28;20112;-67
2023/12/09 04:01:03;;;;;;;68.15;23.35;;;;;;;;;;5056936;28;20053;-66
2023/12/09 04:03:28;;;;;;;95.47;28.75;;;;;;;;;;5058620;28;20028;-66
2023/12/09 04:05:54;;;;;;;87.35;27.33;;;;;;;;;;5058822;28;20106;-66
2023/12/09 04:08:20;;;;;;;83.30;25.75;;;;;;;;;;5058847;28;20096;-66
2023/12/09 04:10:45;;;;;;;90.72;27.90;;;;;;;;;;5058683;28;20129;-66
2023/12/09 04:13:11;;;;;;;85.68;27.73;;;;;;;;;;5058842;28;20104;-66
2023/12/09 04:15:38;;;;;;;82.32;24.63;;;;;;;;;;5058510;28;20116;-66
2023/12/09 04:18:04;;;;;;;80.82;27.85;;;;;;;;;;5058609;28;20029;-66
2023/12/09 04:20:30;;;;;;;78.55;25.10;;;;;;;;;;5058360;28;20028;-66
2023/12/09 04:22:55;;;;;;;73.68;22.38;;;;;;;;;;5058700;28;20021;-66
2023/12/09 04:25:21;;;;;;;88.10;27.85;;;;;;;;;;5058812;28;20021;-66
2023/12/09 04:27:47;;;;;;;80.75;27.13;;;;;;;;;;5058446;28;20036;-66
2023/12/09 04:30:12;;;;;;;69.38;22.17;;;;;;;;;;5058374;28;20029;-66
2023/12/09 04:32:38;;;;;;;76.75;24.95;;;;;;;;;;5058630;28;20365;-66
2023/12/09 04:35:04;;;;;;;78.78;27.10;;;;;;;;;;5058326;28;20100;-66
2023/12/09 04:37:30;;;;;;;71.68;26.00;;;;;;;;;;5058039;28;20531;-66
2023/12/09 04:39:55;;;;;;;85.47;26.35;;;;;;;;;;5058070;28;20032;-66
2023/12/09 04:42:20;;;;;;;76.75;25.20;;;;;;;;;;5040525;28;20025;-66
2023/12/09 04:44:46;;;;;;;86.57;25.92;;;;;;;;;;5037970;28;20355;-66
2023/12/09 04:47:12;;;;;;;78.40;24.60;;;;;;;;;;5058240;28;20026;-66
2023/12/09 04:49:37;;;;;;;82.80;26.67;;;;;;;;;;5058323;28;20028;-66
2023/12/09 04:52:04;;;;;;;81.25;24.70;;;;;;;;;;5058288;28;20055;-66
2023/12/09 04:54:29;;;;;;;87.53;25.40;;;;;;;;;;5058070;28;20053;-66
2023/12/09 04:56:56;;;;;;;77.50;24.98;;;;;;;;;;5058268;28;21119;-66
2023/12/09 04:59:22;;;;;;;81.85;26.25;;;;;;;;;;5057703;28;20036;-66
2023/12/09 05:01:47;;;;;;;32.97;13.25;;;;;;;;;;5058415;28;20106;-66
2023/12/09 05:04:14;;;;;;;61.45;22.05;;;;;;;;;;5056726;28;20033;-66
2023/12/09 05:06:39;;;;;;;79.80;25.83;;;;;;;;;;5058094;28;20029;-67
2023/12/09 05:09:05;;;;;;;76.50;25.50;;;;;;;;;;5058243;28;20546;-66
2023/12/09 05:11:30;;;;;;;79.20;24.58;;;;;;;;;;5056422;28;20478;-66
2023/12/09 05:13:56;;;;;;;80.70;24.35;;;;;;;;;;5054873;28;20108;-66
2023/12/09 05:16:21;;;;;;;83.85;24.27;;;;;;;;;;5054943;28;20021;-66
2023/12/09 05:18:46;;;;;;;54.08;18.63;;;;;;;;;;5054858;28;20032;-66
2023/12/09 05:21:12;;;;;;;69.47;22.88;;;;;;;;;;5054961;28;20431;-66
2023/12/09 05:23:38;;;;;;;63.00;19.92;;;;;;;;;;5053561;28;20029;-66
2023/12/09 05:26:04;;;;;;;75.60;23.80;;;;;;;;;;5054585;28;20025;-66
2023/12/09 05:28:30;;;;;;;54.72;17.05;;;;;;;;;;5054533;28;20108;-66
2023/12/09 05:30:56;;;;;;;69.18;21.67;;;;;;;;;;5054494;28;20021;-67
2023/12/09 05:33:21;;;;;;;62.72;21.90;;;;;;;;;;5054861;28;20025;-66
2023/12/09 05:35:47;;;;;;;54.30;19.48;;;;;;;;;;5054458;28;20033;-66
2023/12/09 05:38:12;;;;;;;71.45;23.35;;;;;;;;;;5054299;28;20024;-66
2023/12/09 05:40:38;;;;;;;78.00;24.27;;;;;;;;;;5050794;28;20356;-66
2023/12/09 05:43:03;;;;;;;54.70;20.25;;;;;;;;;;5034286;28;20025;-66
2023/12/09 05:45:29;;;;;;;80.45;24.40;;;;;;;;;;5041564;28;20553;-66
2023/12/09 05:47:56;;;;;;;66.15;19.60;;;;;;;;;;5054226;28;20522;-66
2023/12/09 05:50:21;;;;;;;54.75;19.67;;;;;;;;;;5054359;28;20036;-67
2023/12/09 05:52:47;;;;;;;46.35;15.43;;;;;;;;;;5054156;28;20131;-66
2023/12/09 05:55:15;;;;;;;68.57;23.42;;;;;;;;;;5054024;28;20025;-66
2023/12/09 05:57:40;;;;;;;71.00;24.40;;;;;;;;;;5054004;28;20530;-66
2023/12/09 06:00:09;;;;;;;77.93;24.15;;;;;;;;;;5052688;28;20028;-66
2023/12/09 06:02:35;;;;;;;77.70;23.70;;;;;;;;;;5054089;28;20522;-66
2023/12/09 06:05:00;;;;;;;64.30;22.63;;;;;;;;;;5054194;28;20100;-66
2023/12/09 06:07:26;;;;;;;62.33;22.45;;;;;;;;;;5053974;28;20438;-66
2023/12/09 06:09:51;;;;;;;65.95;23.13;;;;;;;;;;5053972;28;20064;-66
2023/12/09 06:12:16;;;;;;;64.85;21.52;;;;;;;;;;5053356;28;20035;-66
2023/12/09 06:14:42;;;;;;;62.67;20.92;;;;;;;;;;5053826;28;20029;-66
2023/12/09 06:17:07;;;;;;;72.35;23.67;;;;;;;;;;5053617;28;20433;-66
2023/12/09 06:19:33;;;;;;;76.75;23.00;;;;;;;;;;5053861;28;20065;-66
2023/12/09 06:21:58;;;;;;;66.78;21.67;;;;;;;;;;5053914;28;20035;-66
2023/12/09 06:24:24;;;;;;;64.57;23.58;;;;;;;;;;5052778;28;20021;-66
2023/12/09 06:26:49;;;;;;;77.75;24.00;;;;;;;;;;5053487;28;20017;-66
2023/12/09 06:29:15;;;;;;;78.43;21.38;;;;;;;;;;5053647;28;20032;-66
2023/12/09 06:31:40;;;;;;;38.58;14.73;;;;;;;;;;5053534;28;20025;-67
2023/12/09 06:34:06;;;;;;;72.38;22.73;;;;;;;;;;5053525;28;20040;-66
2023/12/09 06:36:31;;;;;;;58.17;19.10;;;;;;;;;;5053213;28;20017;-66
2023/12/09 06:38:56;;;;;;;80.45;23.88;;;;;;;;;;5053327;28;20421;-66
2023/12/09 06:41:22;;;;;;;77.72;23.20;;;;;;;;;;5043527;28;20026;-66
2023/12/09 06:43:47;;;;;;;76.05;23.63;;;;;;;;;;5033581;28;20029;-66
2023/12/09 06:46:13;;;;;;;82.10;24.70;;;;;;;;;;5046071;28;20028;-65
2023/12/09 06:48:39;;;;;;;67.00;23.00;;;;;;;;;;5053420;28;20025;-65
2023/12/09 06:51:07;;;;;;;80.97;23.02;;;;;;;;;;5053277;28;20047;-66
2023/12/09 06:53:32;;;;;;;78.13;25.00;;;;;;;;;;5052987;28;20049;-66
2023/12/09 06:55:58;;;;;;;79.20;24.33;;;;;;;;;;5052943;28;20367;-67
2023/12/09 06:58:24;;;;;;;65.85;23.50;;;;;;;;;;5053103;28;20051;-67
2023/12/09 07:00:49;;;;;;;64.88;21.02;;;;;;;;;;5052968;28;20055;-65
2023/12/09 07:03:14;;;;;;;24.88;11.95;;;;;;;;;;5053001;28;20083;-65
2023/12/09 07:05:40;;;;;;;69.18;23.17;;;;;;;;;;5052832;28;20037;-66
2023/12/09 07:08:08;;;;;;;68.65;22.63;;;;;;;;;;5052745;28;20493;-66
2023/12/09 07:10:33;;;;;;;69.13;21.40;;;;;;;;;;5052632;28;20025;-66
2023/12/09 07:12:58;;;;;;;84.68;23.83;;;;;;;;;;5052661;28;20083;-65
2023/12/09 07:15:24;;;;;;;78.18;23.85;;;;;;;;;;5052745;28;20028;-66
2023/12/09 07:17:49;;;;;;;79.88;23.42;;;;;;;;;;5052749;28;20064;-66
2023/12/09 07:20:15;;;;;;;73.20;21.38;;;;;;;;;;5052684;28;20444;-66
2023/12/09 07:22:40;;;;;;;54.45;19.15;;;;;;;;;;5052648;28;20028;-66
2023/12/09 07:25:06;;;;;;;66.20;19.95;;;;;;;;;;5052215;28;20032;-65
2023/12/09 07:27:31;;;;;;;58.45;18.65;;;;;;;;;;5052407;28;20021;-65
2023/12/09 07:29:57;;;;;;;71.38;22.27;;;;;;;;;;5052262;28;20433;-65
2023/12/09 07:32:22;;;;;;;40.95;17.13;;;;;;;;;;5052446;28;20025;-65
2023/12/09 07:34:48;;;;;;;50.50;19.85;;;;;;;;;;5052173;28;20056;-65
2023/12/09 07:37:14;;;;;;;69.05;20.40;;;;;;;;;;5052213;28;20124;-65
2023/12/09 07:39:40;;;;;;;72.63;22.88;;;;;;;;;;5052182;28;20040;-65
2023/12/09 07:42:05;;;;;;;73.32;22.92;;;;;;;;;;5036651;28;20037;-66
2023/12/09 07:44:31;;;;;;;75.05;25.85;;;;;;;;;;5032482;28;20104;-66
2023/12/09 07:46:56;;;;;;;70.68;23.30;;;;;;;;;;5051197;28;20033;-66
2023/12/09 07:49:21;;;;;;;76.93;22.73;;;;;;;;;;5052084;28;20051;-66
2023/12/09 07:51:47;;;;;;;67.10;22.52;;;;;;;;;;5052157;28;20037;-66
2023/12/09 07:54:12;;;;;;;56.65;17.90;;;;;;;;;;5051752;28;20127;-66
2023/12/09 07:56:40;;;;;;;60.22;22.08;;;;;;;;;;5051786;28;20020;-66
2023/12/09 07:59:05;;;;;;;54.47;17.17;;;;;;;;;;5052201;28;20086;-66
2023/12/09 08:01:31;;;;;;;81.25;23.90;;;;;;;;;;5052036;28;20029;-66
2023/12/09 08:03:56;;;;;;;79.07;25.38;;;;;;;;;;5052091;28;20360;-66
2023/12/09 08:06:21;;;;;;;74.22;23.08;;;;;;;;;;5050585;28;20501;-66
2023/12/09 08:08:50;;;;;;;54.05;19.90;;;;;;;;;;5051854;28;20135;-66
2023/12/09 08:11:16;;;;;;;63.58;21.88;;;;;;;;;;5051908;28;20075;-65
2023/12/09 08:13:43;;;;;;;75.28;22.33;;;;;;;;;;5051956;28;20072;-66
2023/12/09 08:16:09;;;;;;;71.95;20.58;;;;;;;;;;5051492;28;20494;-66
2023/12/09 08:18:34;;;;;;;81.85;23.95;;;;;;;;;;5052097;28;20459;-66
2023/12/09 08:21:01;;;;;;;49.88;16.45;;;;;;;;;;5052275;28;20032;-65
2023/12/09 08:23:27;;;;;;;75.25;22.38;;;;;;;;;;5051841;28;20018;-66
2023/12/09 08:25:52;;;;;;;68.65;22.63;;;;;;;;;;5052050;28;20033;-66
2023/12/09 08:28:19;;;;;;;72.55;22.45;;;;;;;;;;5051978;28;20493;-65
2023/12/09 08:30:46;;;;;;;67.18;22.10;;;;;;;;;;5051775;28;20067;-66
2023/12/09 08:33:13;;;;;;;55.53;19.80;;;;;;;;;;5052299;28;20383;-66
2023/12/09 08:35:38;;;;;;;60.65;22.00;;;;;;;;;;5051466;28;20028;-66
2023/12/09 08:38:03;;;;;;;71.90;22.55;;;;;;;;;;5051376;28;20021;-65
2023/12/09 08:40:29;;;;;;;71.00;22.88;;;;;;;;;;5049478;28;20428;-66
2023/12/09 08:42:54;;;;;;;69.88;23.67;;;;;;;;;;5031890;28;20036;-66
2023/12/09 08:45:20;;;;;;;72.68;24.50;;;;;;;;;;5037660;28;20532;-66
2023/12/09 08:47:45;;;;;;;73.35;23.88;;;;;;;;;;5053766;28;20041;-67
2023/12/09 08:50:12;;;;;;;60.42;22.30;;;;;;;;;;5055565;28;20017;-67
2023/12/09 08:52:38;;;;;;;64.10;22.17;;;;;;;;;;5055068;28;20389;-66
2023/12/09 08:55:04;;;;;;;65.32;21.95;;;;;;;;;;5055585;28;20029;-66
2023/12/09 08:57:29;;;;;;;65.55;23.48;;;;;;;;;;5055316;28;20036;-66
2023/12/09 08:59:54;;;;;;;64.55;22.30;;;;;;;;;;5055503;28;20033;-66
2023/12/09 09:02:21;;;;;;;66.85;23.48;;;;;;;;;;5055456;28;20017;-66
2023/12/09 09:04:47;;;;;;;50.38;20.80;;;;;;;;;;5054959;28;20052;-66
2023/12/09 09:07:13;;;;;;;64.93;23.75;;;;;;;;;;5055017;28;20118;-67
2023/12/09 09:09:39;;;;;;;60.17;22.35;;;;;;;;;;5055459;28;20029;-66
2023/12/09 09:12:06;;;;;;;54.97;20.90;;;;;;;;;;5053948;28;20021;-67
2023/12/09 09:14:33;;;;;;;58.55;21.23;;;;;;;;;;5054994;28;20107;-66
2023/12/09 09:16:59;;;;;;;54.00;23.08;;;;;;;;;;5054984;28;20025;-67
2023/12/09 09:19:25;;;;;;;57.50;22.17;;;;;;;;;;5054846;28;20025;-66
2023/12/09 09:21:52;;;;;;;49.15;21.13;;;;;;;;;;5054762;28;20484;-66
2023/12/09 09:24:17;;;;;;;53.83;22.27;;;;;;;;;;5054584;28;20425;-66
2023/12/09 09:26:42;;;;;;;51.70;20.08;;;;;;;;;;5053804;28;20055;-66
2023/12/09 09:29:10;;;;;;;50.42;19.05;;;;;;;;;;5054068;28;20041;-66
2023/12/09 09:31:35;;;;;;;56.17;20.33;;;;;;;;;;5054667;28;20040;-66
2023/12/09 09:34:01;;;;;;;54.05;21.35;;;;;;;;;;5054541;28;20095;-66
2023/12/09 09:36:27;;;;;;;57.78;19.67;;;;;;;;;;5054264;28;20048;-66
2023/12/09 09:38:52;;;;;;;55.08;20.92;;;;;;;;;;5054646;28;20478;-67
2023/12/09 09:41:31;;;;;;;48.15;20.70;;;;;;;;;;5045533;28;20124;-67
2023/12/09 09:44:26;;;;;;;52.92;20.83;;;;;;;;;;5034365;28;20117;-67
2023/12/09 09:46:56;;;;;;;56.78;21.20;;;;;;;;;;5052064;28;20422;-65
2023/12/09 09:49:23;;;;;;;56.05;21.60;;;;;;;;;;5054157;28;20394;-65
2023/12/09 09:51:52;;;;;;;15.57;10.00;;;;;;;;;;5054295;28;20063;-66
2023/12/09 09:54:21;;;;;;;56.08;21.00;;;;;;;;;;5054131;28;20052;-64
2023/12/09 09:56:49;;;;;;;62.13;22.92;;;;;;;;;;5054309;28;20040;-64
2023/12/09 09:59:14;;;;;;;44.10;16.42;;;;;;;;;;5054011;28;20060;-64
2023/12/09 10:01:41;;;;;;;54.88;20.58;;;;;;;;;;5054302;28;20108;-65
2023/12/09 10:04:06;;;;;;;67.45;23.00;;;;;;;;;;5053744;28;20032;-65
2023/12/09 10:06:33;;;;;;;59.63;21.95;;;;;;;;;;5054180;28;20374;-67
2023/12/09 10:08:59;;;;;;;59.25;20.92;;;;;;;;;;5053513;28;20083;-65
2023/12/09 10:11:24;;;;;;;63.53;22.40;;;;;;;;;;5052543;28;20582;-66
2023/12/09 10:13:50;;;;;;;71.97;24.05;;;;;;;;;;5053986;28;20035;-67
2023/12/09 10:16:15;;;;;;;58.20;21.80;;;;;;;;;;5053956;28;20027;-76
2023/12/09 10:18:47;;;;;;;59.15;22.55;;;;;;;;;;5052583;28;20035;-70
2023/12/09 10:21:16;;;;;;;65.07;22.25;;;;;;;;;;5054483;28;20020;-74
2023/12/09 10:23:44;;;;;;;69.45;22.73;;;;;;;;;;5053977;28;20021;-74
2023/12/09 10:26:10;;;;;;;60.33;21.13;;;;;;;;;;5054281;28;20040;-76
2023/12/09 10:28:36;;;;;;;57.25;21.80;;;;;;;;;;5053413;28;20025;-71
2023/12/09 10:31:02;;;;;;;46.72;18.17;;;;;;;;;;5053420;28;20439;-71
2023/12/09 10:33:32;;;;;;;59.30;21.33;;;;;;;;;;5053622;28;20044;-72
2023/12/09 10:35:57;;;;;;;55.33;20.77;;;;;;;;;;5053525;28;20051;-75
2023/12/09 10:38:22;;;;;;;52.38;19.65;;;;;;;;;;5053552;28;20425;-75
2023/12/09 10:40:49;;;;;;;53.95;19.63;;;;;;;;;;5053425;28;20024;-70
2023/12/09 10:43:15;;;;;;;44.90;19.02;;;;;;;;;;5053741;28;20033;-72
2023/12/09 10:45:41;;;;;;;52.38;19.42;;;;;;;;;;5053381;28;20064;-71
2023/12/09 10:48:07;;;;;;;40.33;14.95;;;;;;;;;;5053220;28;20109;-80
2023/12/09 10:50:33;;;;;;;46.63;18.73;;;;;;;;;;5033570;28;20033;-71
2023/12/09 10:52:59;;;;;;;59.30;19.88;;;;;;;;;;5033024;28;20037;-71
2023/12/09 10:55:25;;;;;;;52.75;18.83;;;;;;;;;;5033630;28;20041;-74
2023/12/09 10:57:51;;;;;;;54.47;19.05;;;;;;;;;;5033452;28;20021;-75
2023/12/09 11:00:18;;;;;;;53.17;18.77;;;;;;;;;;5033565;28;20157;-73
2023/12/09 11:02:45;;;;;;;53.50;19.27;;;;;;;;;;5033268;28;20021;-77
2023/12/09 11:05:11;;;;;;;45.13;16.52;;;;;;;;;;5033209;28;20025;-67
2023/12/09 11:07:40;;;;;;;54.33;18.10;;;;;;;;;;5033037;28;20115;-70
2023/12/09 11:10:07;;;;;;;34.75;14.30;;;;;;;;;;5032543;28;20036;-69
2023/12/09 11:12:33;;;;;;;49.53;17.23;;;;;;;;;;5033244;28;20021;-69
2023/12/09 11:15:13;;;;;;;46.20;17.17;;;;;;;;;;5033210;28;20433;-74
2023/12/09 11:17:40;;;;;;;;;;;;;;;;;;5033193;28;20026;-73
2023/12/09 11:20:18;;;;;;;43.58;16.23;;;;;;;;;;5033136;28;20046;-71
2023/12/09 11:22:45;;;;;;;63.55;18.58;;;;;;;;;;5032987;28;20028;-70
2023/12/09 11:25:19;;;;;;;54.17;16.08;;;;;;;;;;5033264;28;20032;-71
2023/12/09 11:27:45;;;;;;;57.80;17.45;;;;;;;;;;5032813;28;20029;-74
2023/12/09 11:30:29;;;;;;;63.38;18.45;;;;;;;;;;5039289;28;20459;-70
2023/12/09 11:32:54;;;;;;;35.97;11.05;;;;;;;;;;5052791;28;20031;-70
2023/12/09 11:35:20;;;;;;;38.55;14.05;;;;;;;;;;5052863;28;20433;-70
2023/12/09 11:37:49;;;;;;;45.75;15.57;;;;;;;;;;5052486;28;20040;-70
2023/12/09 11:40:15;;;;;;;49.22;16.30;;;;;;;;;;5052576;28;20079;-75
2023/12/09 11:42:41;;;;;;;33.88;13.38;;;;;;;;;;5052291;28;20025;-69
2023/12/09 11:45:07;;;;;;;50.42;15.07;;;;;;;;;;5052384;28;20355;-69
2023/12/09 11:47:33;;;;;;;44.38;13.45;;;;;;;;;;5052325;28;20083;-70
2023/12/09 11:49:59;;;;;;;39.92;14.93;;;;;;;;;;5052689;28;20040;-68
2023/12/09 11:52:27;;;;;;;43.45;14.80;;;;;;;;;;5052117;28;20466;-69
2023/12/09 11:55:04;;;;;;;48.72;15.32;;;;;;;;;;5052432;28;20029;-73
2023/12/09 11:57:31;;;;;;;41.38;15.77;;;;;;;;;;5052319;28;20028;-73
2023/12/09 11:59:57;;;;;;;49.75;15.85;;;;;;;;;;5052215;28;20040;-69
2023/12/09 12:02:22;;;;;;;41.92;12.98;;;;;;;;;;5052232;28;20025;-72
2023/12/09 12:04:50;;;;;;;50.67;17.58;;;;;;;;;;5052469;28;20032;-70
2023/12/09 12:07:16;;;;;;;43.72;16.15;;;;;;;;;;5052573;28;20535;-68
2023/12/09 12:09:41;;;;;;;46.53;15.90;;;;;;;;;;5052481;28;20104;-71
2023/12/09 12:12:07;;;;;;;44.42;15.40;;;;;;;;;;5052218;28;20075;-70
2023/12/09 12:14:33;;;;;;;37.28;15.52;;;;;;;;;;5052225;28;20123;-70
2023/12/09 12:16:59;;;;;;;50.53;16.33;;;;;;;;;;5052415;28;20398;-69
2023/12/09 12:19:25;;;;;;;38.55;13.88;;;;;;;;;;5052329;28;20025;-70
2023/12/09 12:21:55;;;;;;;30.30;11.80;;;;;;;;;;5054671;28;20029;-69
2023/12/09 12:24:21;;;;;;;;;;;;;;;;;;5056709;28;20035;-69
2023/12/09 12:26:47;;;;;;;31.45;12.38;;;;;;;;;;5054943;28;19912;-70
2023/12/09 12:29:20;;;;;;;16.75;8.45;;;;;;;;;;5056144;28;20417;-69
2023/12/09 12:31:49;;;;;;;26.52;11.77;;;;;;;;;;5056105;28;20029;-69
2023/12/09 12:34:19;;;;;;;43.00;13.40;;;;;;;;;;5056138;28;20113;-70
2023/12/09 12:36:48;;;;;;;43.35;16.92;;;;;;;;;;5056041;28;20758;-69
2023/12/09 12:39:14;;;;;;;29.15;11.60;;;;;;;;;;5054727;28;20413;-71
2023/12/09 12:41:40;;;;;;;38.30;13.98;;;;;;;;;;5055868;28;20033;-70
2023/12/09 12:44:05;;;;;;;55.25;18.65;;;;;;;;;;5055815;28;20076;-71
2023/12/09 12:46:32;;;;;;;35.40;14.95;;;;;;;;;;5055615;28;20024;-71
2023/12/09 12:48:57;;;;;;;33.90;11.88;;;;;;;;;;5055887;28;20029;-70
2023/12/09 12:51:23;;;;;;;31.52;10.85;;;;;;;;;;5055671;28;20407;-70
2023/12/09 12:53:49;;;;;;;18.73;8.02;;;;;;;;;;5055925;28;20120;-73
2023/12/09 12:56:14;;;;;;;38.15;15.18;;;;;;;;;;5055803;28;20424;-72
2023/12/09 12:58:40;;;;;;;42.58;15.10;;;;;;;;;;5055548;28;20040;-68
2023/12/09 13:01:05;;;;;;;22.63;10.80;;;;;;;;;;5055693;28;20392;-68
2023/12/09 13:03:32;;;;;;;30.35;13.45;;;;;;;;;;5055608;28;20390;-72
2023/12/09 13:05:58;;;;;;;41.90;15.50;;;;;;;;;;5055448;28;20066;-71
2023/12/09 13:08:26;;;;;;;51.28;16.42;;;;;;;;;;5055532;28;20036;-70
2023/12/09 13:10:52;;;;;;;50.47;16.80;;;;;;;;;;5055099;28;20478;-72
2023/12/09 13:13:17;;;;;;;37.88;13.38;;;;;;;;;;5055136;28;20044;-70
2023/12/09 13:15:43;;;;;;;27.55;10.00;;;;;;;;;;5055365;28;20029;-70
2023/12/09 13:18:09;;;;;;;48.08;15.10;;;;;;;;;;5055343;28;20539;-72
2023/12/09 13:20:34;;;;;;;59.67;16.58;;;;;;;;;;5055329;28;20029;-70
2023/12/09 13:22:59;;;;;;;36.47;13.18;;;;;;;;;;5055058;28;20052;-69
2023/12/09 13:25:25;;;;;;;54.10;13.75;;;;;;;;;;5055148;28;20029;-69
2023/12/09 13:27:50;;;;;;;65.88;17.05;;;;;;;;;;5055289;28;20035;-71
2023/12/09 13:30:16;;;;;;;57.70;15.85;;;;;;;;;;5054991;28;20025;-68
2023/12/09 13:32:44;;;;;;;58.83;16.42;;;;;;;;;;5054431;28;20104;-68
2023/12/09 13:35:10;;;;;;;36.00;12.50;;;;;;;;;;5055087;28;20474;-73
2023/12/09 13:37:38;;;;;;;58.17;13.95;;;;;;;;;;5054762;28;20072;-71
2023/12/09 13:40:05;;;;;;;57.97;15.82;;;;;;;;;;5055029;28;20028;-69
2023/12/09 13:42:30;;;;;;;59.92;15.70;;;;;;;;;;5054353;28;20036;-67
2023/12/09 13:44:55;;;;;;;60.33;16.88;;;;;;;;;;5054733;28;20029;-68
2023/12/09 13:47:21;;;;;;;61.55;16.15;;;;;;;;;;5054183;28;20040;-67
2023/12/09 13:49:46;;;;;;;65.13;16.75;;;;;;;;;;5054596;28;20044;-69
2023/12/09 13:52:14;;;;;;;58.53;16.05;;;;;;;;;;5054609;28;20415;-71
2023/12/09 13:54:39;;;;;;;64.70;17.23;;;;;;;;;;5054536;28;20102;-68
2023/12/09 13:57:08;;;;;;;58.20;16.92;;;;;;;;;;5054500;28;20025;-69
2023/12/09 13:59:34;;;;;;;60.28;18.23;;;;;;;;;;5054575;28;20029;-70
2023/12/09 14:02:00;;;;;;;56.00;16.13;;;;;;;;;;5054687;28;20481;-68
2023/12/09 14:04:26;;;;;;;66.18;17.00;;;;;;;;;;5054417;28;20462;-71
2023/12/09 14:06:51;;;;;;;61.97;17.20;;;;;;;;;;5054194;28;20029;-69
2023/12/09 14:09:17;;;;;;;70.30;18.23;;;;;;;;;;5054234;28;20033;-72
2023/12/09 14:11:43;;;;;;;67.32;17.67;;;;;;;;;;5054387;28;20387;-72